Time;durP1;ratioP1;P1;durP2;ratioP2;P2;SDS_P1;SDS_P2;PMS_P1;PMS_P2;Temp;Humidity;BMP_temperature;BMP_pressure;BME280_temperature;BME280_humidity;BME280_pressure;Samples;Min_cycle;Max_cycle;Signal;HPM_P1;HPM_P2
2022/06/30 00:00:42;;;;;;;5.93;3.92;;;;;;;24.66;62.23;100096.78;5031388;28;20208;-65
2022/06/30 00:03:10;;;;;;;7.68;4.40;;;;;;;24.65;62.32;100093.25;5031149;28;20208;-65
2022/06/30 00:05:38;;;;;;;9.07;4.10;;;;;;;24.65;62.32;100093.25;5030587;28;20208;-65
2022/06/30 00:08:06;;;;;;;6.57;4.03;;;;;;;24.65;61.54;100092.44;5031439;28;20235;-65
2022/06/30 00:10:34;;;;;;;7.07;4.22;;;;;;;24.62;61.62;100103.81;5031243;28;20223;-66
2022/06/30 00:13:02;;;;;;;6.28;4.10;;;;;;;24.53;62.30;100102.59;5030333;28;20718;-66
2022/06/30 00:15:31;;;;;;;10.43;3.92;;;;;;;24.41;62.99;100107.25;5031229;28;20239;-66
2022/06/30 00:17:59;;;;;;;7.43;4.53;;;;;;;24.25;64.03;100103.50;5033022;28;20295;-66
2022/06/30 00:20:26;;;;;;;6.90;4.00;;;;;;;24.23;63.82;100105.63;5023806;28;20654;-66
2022/06/30 00:22:54;;;;;;;5.40;4.00;;;;;;;24.21;63.83;100110.47;5027957;28;20642;-66
2022/06/30 00:25:22;;;;;;;6.82;3.80;;;;;;;24.20;64.21;100106.91;5031174;28;20291;-66
2022/06/30 00:27:50;;;;;;;6.32;3.85;;;;;;;24.24;64.18;100105.38;5030935;28;20213;-67
2022/06/30 00:30:18;;;;;;;6.25;3.90;;;;;;;24.22;64.15;100104.81;5031175;28;20977;-66
2022/06/30 00:32:47;;;;;;;5.95;3.80;;;;;;;24.25;63.80;100104.31;5030293;28;20307;-66
2022/06/30 00:35:14;;;;;;;6.70;3.85;;;;;;;24.23;63.54;100105.63;5028323;28;20211;-66
2022/06/30 00:37:42;;;;;;;8.65;3.92;;;;;;;24.24;63.44;100102.69;5024376;28;20623;-66
2022/06/30 00:40:11;;;;;;;9.23;4.95;;;;;;;24.18;63.72;100100.94;5023290;28;20240;-66
2022/06/30 00:42:38;;;;;;;4.78;3.88;;;;;;;24.10;63.92;100095.88;5029615;28;20263;-67
2022/06/30 00:45:07;;;;;;;8.88;4.68;;;;;;;24.04;64.10;100101.47;5031274;28;20212;-67
2022/06/30 00:47:35;;;;;;;7.95;4.30;;;;;;;24.02;63.97;100094.41;5030690;28;20246;-65
2022/06/30 00:50:05;;;;;;;5.90;4.00;;;;;;;23.96;64.05;100091.88;5031263;28;20653;-65
2022/06/30 00:52:37;;;;;;;6.88;4.72;;;;;;;23.88;64.91;100095.81;5029554;28;20201;-66
2022/06/30 00:55:06;;;;;;;9.18;4.50;;;;;;;23.89;64.60;100093.91;5030672;28;20236;-66
2022/06/30 00:57:38;;;;;;;5.15;4.15;;;;;;;23.91;64.78;100086.38;5019706;28;20718;-66
2022/06/30 01:00:07;;;;;;;6.38;3.95;;;;;;;23.92;64.79;100094.22;5024671;28;20303;-65
2022/06/30 01:02:40;;;;;;;8.25;4.75;;;;;;;23.84;64.73;100094.63;5016036;28;20591;-67
2022/06/30 01:05:09;;;;;;;6.03;4.30;;;;;;;23.77;64.83;100088.56;5002075;28;20221;-66
2022/06/30 01:07:37;;;;;;;9.00;4.00;;;;;;;23.70;65.03;100090.59;5024448;28;20215;-65
2022/06/30 01:12:55;;;;;;;6.38;4.20;;;;;;;23.76;65.88;100084.19;5023733;28;20208;-67
2022/06/30 01:15:23;;;;;;;7.20;4.70;;;;;;;23.81;65.57;100080.78;5017875;28;20247;-67
2022/06/30 01:17:51;;;;;;;5.65;4.00;;;;;;;23.79;65.50;100078.31;5023247;28;20323;-66
2022/06/30 01:20:27;;;;;;;6.60;4.40;;;;;;;23.79;65.89;100083.72;5020207;28;20903;-65
2022/06/30 01:22:57;;;;;;;6.45;4.07;;;;;;;23.79;65.50;100088.31;5022202;28;20800;-65
2022/06/30 01:25:26;;;;;;;6.35;4.03;;;;;;;23.76;65.41;100086.09;5030605;28;20215;-66
2022/06/30 01:27:55;;;;;;;6.40;4.20;;;;;;;23.75;65.59;100087.97;5030155;28;20203;-65
2022/06/30 01:30:24;;;;;;;6.30;4.40;;;;;;;23.71;65.64;100086.00;5030203;28;20211;-66
2022/06/30 01:32:52;;;;;;;7.93;4.53;;;;;;;23.67;66.04;100090.25;5019995;28;20860;-63
2022/06/30 01:35:20;;;;;;;7.28;4.43;;;;;;;23.66;66.30;100094.84;5026855;28;20547;-66
2022/06/30 01:37:51;;;;;;;7.72;4.72;;;;;;;23.59;66.80;100095.00;5020496;28;20228;-64
2022/06/30 01:40:21;;;;;;;8.00;4.40;;;;;;;23.56;67.09;100097.38;5029727;28;20208;-66
2022/06/30 01:42:50;;;;;;;7.60;4.73;;;;;;;23.54;67.48;100096.81;5029714;28;20291;-65
2022/06/30 01:45:18;;;;;;;6.35;3.67;;;;;;;23.57;66.85;100094.41;5024248;28;20214;-66
2022/06/30 01:47:46;;;;;;;7.00;4.40;;;;;;;23.55;66.68;100093.03;5020077;28;20197;-66
2022/06/30 01:50:16;;;;;;;9.73;4.43;;;;;;;23.56;66.77;100100.09;5017908;28;20245;-66
2022/06/30 01:52:44;;;;;;;7.93;4.80;;;;;;;23.51;66.85;100092.69;5017788;28;20228;-66
2022/06/30 01:55:13;;;;;;;6.22;4.53;;;;;;;23.48;67.14;100098.56;5024139;28;20620;-65
2022/06/30 01:57:42;;;;;;;7.13;4.37;;;;;;;23.50;67.08;100099.16;5020697;28;20319;-66
2022/06/30 02:00:13;;;;;;;9.90;4.60;;;;;;;23.45;67.13;100088.22;5015318;28;20214;-66
2022/06/30 02:02:41;;;;;;;6.78;4.80;;;;;;;23.32;67.48;100088.47;5029464;28;20668;-65
2022/06/30 02:05:10;;;;;;;6.73;3.90;;;;;;;23.27;67.72;100091.91;5027653;28;20205;-66
2022/06/30 02:07:39;;;;;;;7.00;4.27;;;;;;;23.28;67.84;100092.75;5023837;28;20558;-66
2022/06/30 02:10:08;;;;;;;9.37;4.93;;;;;;;23.29;67.60;100094.41;5033655;28;20233;-66
2022/06/30 02:12:46;;;;;;;7.80;4.57;;;;;;;23.26;67.34;100087.56;5033013;28;20239;-65
2022/06/30 02:15:17;;;;;;;10.47;4.60;;;;;;;23.29;67.44;100083.56;5033585;28;20635;-66
2022/06/30 02:17:45;;;;;;;7.77;4.80;;;;;;;23.26;67.46;100084.03;5033330;28;20212;-66
2022/06/30 02:20:18;;;;;;;6.27;4.67;;;;;;;23.24;67.30;100076.16;5027421;28;20584;-66
2022/06/30 02:22:45;;;;;;;7.10;4.60;;;;;;;23.18;67.49;100076.31;5032472;28;20212;-66
2022/06/30 02:25:13;;;;;;;9.80;4.73;;;;;;;23.09;67.64;100072.34;5032568;28;20208;-64
2022/06/30 02:27:43;;;;;;;6.73;4.77;;;;;;;23.01;68.17;100075.41;5035843;28;20216;-65
2022/06/30 02:30:11;;;;;;;8.43;4.47;;;;;;;22.98;68.40;100076.72;5033445;28;20654;-67
2022/06/30 02:32:40;;;;;;;8.30;4.73;;;;;;;22.95;68.74;100087.19;5032853;28;20209;-66
2022/06/30 02:35:09;;;;;;;8.37;4.70;;;;;;;22.91;69.11;100088.72;5032961;28;20315;-67
2022/06/30 02:37:37;;;;;;;9.33;5.10;;;;;;;22.86;69.47;100075.94;5032956;28;20224;-65
2022/06/30 02:40:06;;;;;;;6.33;4.47;;;;;;;22.87;69.34;100075.66;5032758;28;20220;-66
2022/06/30 02:42:33;;;;;;;9.57;5.00;;;;;;;22.91;68.81;100077.91;5032733;28;20295;-65
2022/06/30 02:45:01;;;;;;;6.57;4.70;;;;;;;22.91;68.88;100083.31;5032881;28;20208;-66
2022/06/30 02:47:32;;;;;;;11.70;4.70;;;;;;;22.92;68.30;100090.38;5032679;28;20228;-65
2022/06/30 02:50:04;;;;;;;8.33;4.83;;;;;;;22.84;67.97;100092.38;5033050;28;20212;-65
2022/06/30 02:52:31;;;;;;;8.30;4.90;;;;;;;22.72;68.47;100096.94;5031986;28;20574;-66
2022/06/30 02:55:00;;;;;;;7.77;5.00;;;;;;;22.65;69.23;100092.72;5030376;28;20284;-65
2022/06/30 02:57:28;;;;;;;7.63;4.67;;;;;;;22.64;69.45;100102.69;5029345;28;20225;-66
2022/06/30 02:59:56;;;;;;;7.20;4.60;;;;;;;22.67;69.29;100098.72;5013050;28;20209;-65
2022/06/30 03:02:24;;;;;;;7.43;4.60;;;;;;;22.69;69.02;100104.72;5019478;28;20304;-66
2022/06/30 03:04:52;;;;;;;6.70;4.80;;;;;;;22.67;69.03;100107.63;5022418;28;20202;-67
2022/06/30 03:07:21;;;;;;;10.47;4.77;;;;;;;22.57;69.57;100107.41;5016109;28;20702;-66
2022/06/30 03:09:49;;;;;;;11.40;4.70;;;;;;;22.53;69.28;100098.09;5024864;28;20212;-66
2022/06/30 03:12:16;;;;;;;9.53;5.30;;;;;;;22.46;69.61;100100.09;5012234;28;20213;-66
2022/06/30 03:14:44;;;;;;;7.50;5.03;;;;;;;22.39;69.55;100099.41;5012765;28;20205;-65
2022/06/30 03:17:12;;;;;;;8.30;4.70;;;;;;;22.31;70.16;100088.97;5011571;28;20236;-66
2022/06/30 03:19:39;;;;;;;8.90;5.03;;;;;;;22.30;69.92;100092.72;5012497;28;20223;-65
2022/06/30 03:22:07;;;;;;;7.00;4.73;;;;;;;22.26;71.14;100094.22;5012219;28;20213;-65
2022/06/30 03:24:36;;;;;;;9.43;5.43;;;;;;;22.23;70.97;100092.81;5018168;28;20227;-65
2022/06/30 03:27:05;;;;;;;8.73;4.90;;;;;;;22.21;71.02;100094.94;5020335;28;20221;-64
2022/06/30 03:29:33;;;;;;;11.97;5.00;;;;;;;22.20;71.15;100101.38;5012765;28;20248;-65
2022/06/30 03:32:01;;;;;;;9.43;4.63;;;;;;;22.21;70.66;100110.31;5014889;28;20657;-64
2022/06/30 03:34:28;;;;;;;9.00;5.33;;;;;;;22.22;70.54;100109.25;5031785;28;20204;-64
2022/06/30 03:36:56;;;;;;;6.30;5.17;;;;;;;22.16;70.51;100108.31;5013268;28;20214;-67
2022/06/30 03:39:24;;;;;;;9.90;5.67;;;;;;;22.16;70.73;100104.78;5012542;28;20289;-65
2022/06/30 03:41:53;;;;;;;9.03;5.00;;;;;;;22.20;70.73;100105.97;5012092;28;20220;-65
2022/06/30 03:44:21;;;;;;;7.90;5.43;;;;;;;22.23;70.49;100102.81;5011820;28;20217;-65
2022/06/30 03:46:49;;;;;;;9.27;4.80;;;;;;;22.27;70.27;100106.66;5012181;28;20645;-66
2022/06/30 03:49:23;;;;;;;6.13;4.57;;;;;;;22.20;70.26;100100.56;5011525;28;20227;-64
2022/06/30 03:51:51;;;;;;;9.07;5.33;;;;;;;22.20;70.16;100103.25;5014845;28;20214;-65
2022/06/30 03:54:19;;;;;;;10.07;5.13;;;;;;;22.23;70.30;100105.50;5018851;28;20205;-65
2022/06/30 03:56:48;;;;;;;8.43;4.83;;;;;;;22.25;70.21;100098.81;5024900;28;20275;-64
2022/06/30 03:59:17;;;;;;;9.33;5.20;;;;;;;22.28;70.29;100109.13;5017305;28;20240;-67
2022/06/30 04:01:45;;;;;;;7.80;4.87;;;;;;;22.32;70.02;100112.22;5031974;28;20672;-67
2022/06/30 04:04:13;;;;;;;11.10;4.93;;;;;;;22.34;70.32;100110.91;5031315;28;20236;-66
2022/06/30 04:06:41;;;;;;;10.17;4.90;;;;;;;22.39;69.62;100111.03;5027747;28;20207;-66
2022/06/30 04:09:08;;;;;;;6.27;5.03;;;;;;;22.46;69.09;100111.75;5025301;28;20215;-65
2022/06/30 04:11:36;;;;;;;7.73;4.87;;;;;;;22.48;68.64;100106.09;5017965;28;20204;-65
2022/06/30 04:14:04;;;;;;;6.80;4.70;;;;;;;22.47;68.22;100107.16;5031056;28;20236;-67
2022/06/30 04:16:33;;;;;;;7.07;4.60;;;;;;;22.46;68.22;100100.94;5031301;28;20646;-64
2022/06/30 04:19:01;;;;;;;9.23;5.27;;;;;;;22.47;68.20;100099.06;5028634;28;20229;-66
2022/06/30 04:21:28;;;;;;;6.93;5.00;;;;;;;22.47;67.82;100096.34;5017252;28;20205;-66
2022/06/30 04:23:56;;;;;;;11.40;5.00;;;;;;;22.49;67.80;100102.34;5019334;28;20685;-65
2022/06/30 04:26:24;;;;;;;8.77;5.10;;;;;;;22.48;67.84;100104.22;5030874;28;20209;-65
2022/06/30 04:28:52;;;;;;;7.37;5.03;;;;;;;22.46;67.62;100097.41;5031189;28;20201;-65
2022/06/30 04:34:06;;;;;;;9.17;4.97;;;;;;;22.47;67.90;100102.59;5012886;28;20308;-65
2022/06/30 04:36:34;;;;;;;9.30;4.53;;;;;;;22.45;68.33;100099.28;5026968;28;20209;-66
2022/06/30 04:39:02;;;;;;;8.83;5.20;;;;;;;22.44;68.58;100111.16;5020380;28;20259;-66
2022/06/30 04:41:29;;;;;;;8.67;5.70;;;;;;;22.44;68.47;100094.94;5031190;28;20665;-65
2022/06/30 04:43:58;;;;;;;7.83;5.10;;;;;;;22.46;68.99;100100.09;5030223;28;20297;-66
2022/06/30 04:46:26;;;;;;;8.80;5.13;;;;;;;22.45;69.17;100109.28;5018774;28;20221;-65
2022/06/30 04:48:55;;;;;;;8.93;5.63;;;;;;;22.48;69.57;100098.00;5015063;28;20266;-65
2022/06/30 04:51:25;;;;;;;12.63;5.47;;;;;;;22.48;69.45;100098.00;5018647;28;20212;-65
2022/06/30 04:53:52;;;;;;;11.77;5.37;;;;;;;22.51;69.52;100094.84;5022588;28;20205;-66
2022/06/30 04:56:20;;;;;;;8.77;5.13;;;;;;;22.60;68.88;100101.53;5021307;28;20244;-64
2022/06/30 04:58:48;;;;;;;9.37;5.60;;;;;;;22.62;68.81;100091.28;5011276;28;20468;-64
2022/06/30 05:01:16;;;;;;;9.50;5.63;;;;;;;22.62;68.83;100094.00;5010858;28;20220;-65
2022/06/30 05:03:44;;;;;;;13.57;6.10;;;;;;;22.63;69.10;100103.75;5010446;28;20252;-65
2022/06/30 05:06:12;;;;;;;11.30;5.30;;;;;;;22.62;69.63;100096.69;5010642;28;20292;-65
2022/06/30 05:08:41;;;;;;;8.83;5.57;;;;;;;22.68;69.62;100097.66;5010765;28;20213;-66
2022/06/30 05:11:09;;;;;;;12.10;5.80;;;;;;;22.69;69.85;100094.69;5002666;28;20248;-66
2022/06/30 05:13:37;;;;;;;12.37;5.90;;;;;;;22.68;69.56;100103.88;5010386;28;20596;-66
2022/06/30 05:16:05;;;;;;;11.20;6.10;;;;;;;22.72;69.37;100096.94;5009218;28;20216;-67
2022/06/30 05:18:35;;;;;;;9.77;5.33;;;;;;;22.77;69.40;100096.28;5002510;28;20233;-67
2022/06/30 05:21:03;;;;;;;14.00;5.43;;;;;;;22.76;69.70;100095.44;5010474;28;20218;-66
2022/06/30 05:23:31;;;;;;;8.53;5.73;;;;;;;22.79;69.78;100091.44;5008233;28;20209;-67
2022/06/30 05:28:45;;;;;;;8.17;5.57;;;;;;;22.84;69.21;100086.16;5010480;28;20232;-65
2022/06/30 05:31:19;;;;;;;8.27;5.93;;;;;;;22.89;69.73;100088.94;5010775;28;20229;-66
2022/06/30 05:33:47;;;;;;;8.73;5.90;;;;;;;22.97;69.32;100088.56;5010420;28;20547;-65
2022/06/30 05:36:15;;;;;;;12.73;6.47;;;;;;;23.03;68.93;100089.53;5010447;28;20647;-66
2022/06/30 05:38:42;;;;;;;11.57;5.87;;;;;;;23.08;68.49;100086.91;5010095;28;20257;-65
2022/06/30 05:41:12;;;;;;;9.73;5.80;;;;;;;23.12;67.66;100077.28;5006173;28;20682;-65
2022/06/30 05:43:45;;;;;;;7.60;6.03;;;;;;;23.20;67.32;100080.44;5025466;28;20216;-66
2022/06/30 05:46:12;;;;;;;10.40;5.73;;;;;;;23.26;66.92;100081.34;5022799;28;20236;-65
2022/06/30 05:48:40;;;;;;;9.00;6.63;;;;;;;23.33;66.43;100087.41;5014135;28;20209;-65
2022/06/30 05:51:13;;;;;;;9.47;6.13;;;;;;;23.39;66.61;100086.47;5011198;28;20243;-65
2022/06/30 05:53:41;;;;;;;9.17;6.23;;;;;;;23.41;66.64;100081.63;5013565;28;20681;-67
2022/06/30 05:56:09;;;;;;;11.67;6.07;;;;;;;23.44;66.47;100081.16;5013872;28;20273;-65
2022/06/30 05:58:38;;;;;;;9.93;5.83;;;;;;;23.50;66.52;100077.50;5013788;28;20315;-65
2022/06/30 06:01:06;;;;;;;8.87;5.93;;;;;;;23.57;66.27;100078.19;5010763;28;20213;-65
2022/06/30 06:03:33;;;;;;;9.50;5.45;;;;;;;23.61;65.22;100071.22;5013772;28;20236;-66
2022/06/30 06:06:01;;;;;;;10.02;5.72;;;;;;;23.67;65.47;100074.84;5014345;28;20694;-67
2022/06/30 06:08:29;;;;;;;9.67;6.40;;;;;;;23.74;65.71;100075.53;5014258;28;20217;-66
2022/06/30 06:10:57;;;;;;;10.07;6.18;;;;;;;23.80;65.42;100068.31;5013543;28;20294;-65
2022/06/30 06:13:25;;;;;;;8.52;5.55;;;;;;;23.87;65.20;100069.78;5012938;28;20221;-65
2022/06/30 06:15:54;;;;;;;13.88;6.75;;;;;;;23.92;64.80;100074.50;5013773;28;20877;-66
2022/06/30 06:18:22;;;;;;;12.15;6.68;;;;;;;23.98;64.73;100078.91;5013468;28;20217;-66
2022/06/30 06:20:49;;;;;;;9.02;5.63;;;;;;;24.03;64.47;100076.28;5013440;28;20300;-65
2022/06/30 06:23:37;;;;;;;9.40;6.88;;;;;;;24.05;63.50;100076.84;5013004;28;20202;-66
2022/06/30 06:26:05;;;;;;;10.40;7.00;;;;;;;24.12;63.02;100074.81;5013802;28;20217;-66
2022/06/30 06:31:20;;;;;;;10.45;6.57;;;;;;;24.20;62.60;100076.28;5013080;28;20235;-67
2022/06/30 06:33:48;;;;;;;9.60;5.80;;;;;;;24.25;62.69;100065.56;5012926;28;20224;-67
2022/06/30 06:36:16;;;;;;;14.10;7.40;;;;;;;24.30;62.59;100082.72;5013344;28;20210;-66
2022/06/30 06:38:44;;;;;;;14.35;7.00;;;;;;;24.36;62.93;100089.06;5011740;28;20791;-66
2022/06/30 06:41:12;;;;;;;8.25;6.65;;;;;;;24.39;63.13;100083.13;5013020;28;20216;-66
2022/06/30 06:43:39;;;;;;;14.70;7.97;;;;;;;24.45;62.39;100087.53;5011526;28;20213;-66
2022/06/30 06:46:09;;;;;;;12.80;6.70;;;;;;;24.43;62.47;100081.56;5014066;28;20300;-66
2022/06/30 06:48:46;;;;;;;9.32;7.10;;;;;;;24.48;62.28;100086.22;5013460;28;20264;-67
2022/06/30 06:51:18;;;;;;;11.10;7.45;;;;;;;24.50;61.97;100084.09;5001498;28;20818;-67
2022/06/30 06:53:46;;;;;;;11.52;7.80;;;;;;;24.53;62.05;100084.44;5012060;28;20209;-66
2022/06/30 06:56:16;;;;;;;11.65;7.30;;;;;;;24.58;61.97;100081.78;5012798;28;20260;-65
2022/06/30 06:58:44;;;;;;;13.02;7.50;;;;;;;24.64;62.17;100077.25;5012815;28;20210;-66
2022/06/30 07:01:13;;;;;;;16.00;9.52;;;;;;;24.70;62.23;100093.34;5013104;28;20264;-68
2022/06/30 07:03:42;;;;;;;15.40;9.85;;;;;;;24.66;61.97;100088.66;5012497;28;20213;-67
2022/06/30 07:06:10;;;;;;;18.20;9.65;;;;;;;24.67;62.48;100090.31;5012979;28;20216;-67
2022/06/30 07:08:38;;;;;;;16.17;9.13;;;;;;;24.71;62.59;100080.63;5006628;28;20304;-65
2022/06/30 07:11:06;;;;;;;18.35;9.00;;;;;;;24.79;62.72;100082.91;5012525;28;20213;-65
2022/06/30 07:13:35;;;;;;;15.00;8.90;;;;;;;24.87;62.69;100085.19;5012093;28;20267;-66
2022/06/30 07:16:04;;;;;;;13.20;9.32;;;;;;;24.93;62.76;100084.19;5012834;28;20268;-66
2022/06/30 07:18:31;;;;;;;18.67;9.88;;;;;;;24.99;62.90;100082.34;5012569;28;20209;-67
2022/06/30 07:21:01;;;;;;;17.60;8.85;;;;;;;25.04;62.97;100083.25;5012191;28;20781;-65
2022/06/30 07:23:28;;;;;;;17.38;9.57;;;;;;;25.09;61.84;100086.03;5008293;28;20205;-66
2022/06/30 07:25:58;;;;;;;14.60;10.40;;;;;;;25.09;61.56;100083.31;5011750;28;20297;-65
2022/06/30 07:28:26;;;;;;;14.82;10.27;;;;;;;25.11;61.41;100081.16;5012823;28;20235;-66
2022/06/30 07:31:14;;;;;;;14.40;10.27;;;;;;;25.19;61.44;100084.50;5012636;28;20241;-65
2022/06/30 07:33:43;;;;;;;16.42;9.63;;;;;;;25.23;61.40;100082.94;5011012;28;20214;-66
2022/06/30 07:36:13;;;;;;;20.23;13.70;;;;;;;25.33;60.97;100085.78;5010764;28;20225;-66
2022/06/30 07:38:41;;;;;;;16.55;12.18;;;;;;;25.38;61.24;100088.53;5011665;28;20209;-66
2022/06/30 07:41:09;;;;;;;24.27;13.82;;;;;;;25.48;60.85;100092.19;5011968;28;20771;-65
2022/06/30 07:43:37;;;;;;;14.63;11.63;;;;;;;25.53;60.04;100090.59;5019518;28;20269;-66
2022/06/30 07:46:05;;;;;;;16.00;12.38;;;;;;;25.59;60.15;100093.16;5011996;28;20213;-65
2022/06/30 07:48:33;;;;;;;20.25;11.60;;;;;;;25.67;59.56;100083.72;5011809;28;20296;-65
2022/06/30 07:51:01;;;;;;;14.05;10.40;;;;;;;25.70;59.70;100088.63;5012064;28;20666;-66
2022/06/30 07:53:30;;;;;;;22.42;13.55;;;;;;;25.74;59.75;100087.06;5011086;28;20218;-66
2022/06/30 07:55:58;;;;;;;20.80;12.70;;;;;;;25.81;59.44;100091.19;5013196;28;20262;-66
2022/06/30 07:58:26;;;;;;;28.08;13.20;;;;;;;25.86;58.78;100083.09;5015217;28;20217;-66
2022/06/30 08:00:54;;;;;;;17.23;11.63;;;;;;;25.89;59.09;100084.47;5027480;28;20260;-66
2022/06/30 08:03:22;;;;;;;18.00;11.05;;;;;;;25.91;59.23;100086.94;5030076;28;20212;-66
2022/06/30 08:05:50;;;;;;;21.55;10.68;;;;;;;25.97;59.26;100083.19;5017568;28;20745;-66
2022/06/30 08:08:18;;;;;;;19.55;11.05;;;;;;;26.00;58.83;100072.63;5021240;28;20240;-65
2022/06/30 08:10:47;;;;;;;22.02;9.52;;;;;;;26.08;58.79;100068.59;5031522;28;20662;-67
2022/06/30 08:13:15;;;;;;;14.50;11.52;;;;;;;26.17;58.65;100072.50;5030205;28;20295;-66
2022/06/30 08:15:42;;;;;;;15.55;9.90;;;;;;;26.22;58.36;100062.47;5031462;28;20215;-66
2022/06/30 08:18:10;;;;;;;15.25;10.35;;;;;;;26.32;58.44;100069.91;5031192;28;20817;-66
2022/06/30 08:20:39;;;;;;;13.90;9.93;;;;;;;26.36;58.30;100068.31;5025307;28;20236;-67
2022/06/30 08:23:07;;;;;;;32.40;11.82;;;;;;;26.45;57.70;100068.66;5019724;28;20275;-67
2022/06/30 08:25:35;;;;;;;23.65;9.65;;;;;;;26.50;57.80;100061.34;5031100;28;20567;-66
2022/06/30 08:28:05;;;;;;;19.65;8.30;;;;;;;26.60;57.50;100066.84;5013813;28;20296;-66
2022/06/30 08:30:33;;;;;;;14.23;9.40;;;;;;;26.71;57.09;100072.34;5025811;28;20225;-66
2022/06/30 08:33:01;;;;;;;14.55;8.77;;;;;;;26.80;56.29;100068.84;5014773;28;20710;-67
2022/06/30 08:35:29;;;;;;;14.85;8.75;;;;;;;26.87;56.00;100077.59;5017262;28;20245;-67
2022/06/30 08:38:16;;;;;;;12.90;7.70;;;;;;;26.90;54.57;100066.19;5010733;28;20209;-67
2022/06/30 08:43:35;;;;;;;15.68;8.18;;;;;;;27.02;55.47;100065.97;5022798;28;20201;-67
2022/06/30 08:46:04;;;;;;;12.70;8.43;;;;;;;27.28;53.51;100059.53;5030611;28;20211;-67
2022/06/30 08:48:33;;;;;;;18.98;8.57;;;;;;;27.32;53.17;100066.09;5029912;28;20208;-67
2022/06/30 08:51:07;;;;;;;15.98;7.90;;;;;;;27.44;53.47;100059.59;5010709;28;20216;-66
2022/06/30 08:53:40;;;;;;;15.18;8.63;;;;;;;27.50;53.01;100055.78;5022389;28;20253;-66
2022/06/30 08:56:08;;;;;;;15.00;7.25;;;;;;;27.55;53.56;100056.66;5030269;28;20242;-66
2022/06/30 08:58:38;;;;;;;12.23;5.95;;;;;;;27.64;53.46;100055.03;5030238;28;20300;-66
2022/06/30 09:01:06;;;;;;;9.57;6.60;;;;;;;27.70;52.72;100044.97;5024306;28;20762;-66
2022/06/30 09:03:35;;;;;;;9.95;6.25;;;;;;;27.75;51.95;100044.97;5010766;28;20228;-67
2022/06/30 09:06:04;;;;;;;12.93;5.97;;;;;;;27.82;52.81;100045.50;5026777;28;20295;-65
2022/06/30 09:08:32;;;;;;;12.15;5.55;;;;;;;27.88;53.07;100038.97;5020232;28;20653;-66
2022/06/30 09:11:00;;;;;;;7.78;3.63;;;;;;;27.95;51.27;100034.09;5030166;28;20211;-66
2022/06/30 09:13:41;;;;;;;9.07;3.78;;;;;;;28.12;48.03;100047.41;5029192;28;20749;-66
2022/06/30 09:16:09;;;;;;;9.10;3.15;;;;;;;28.16;46.71;100034.03;5024997;28;20209;-66
2022/06/30 09:18:38;;;;;;;7.75;2.97;;;;;;;28.24;46.68;100038.97;5012459;28;20210;-66
2022/06/30 09:21:15;;;;;;;5.60;2.88;;;;;;;28.36;47.96;100039.50;5012949;28;20271;-66
2022/06/30 09:23:44;;;;;;;9.27;3.30;;;;;;;28.40;47.97;100037.88;5019088;28;20263;-66
2022/06/30 09:26:19;;;;;;;6.82;3.20;;;;;;;28.47;46.70;100024.78;5030136;28;20300;-69
2022/06/30 09:28:50;;;;;;;6.75;2.78;;;;;;;28.49;47.15;100022.59;5016458;28;20717;-66
2022/06/30 09:31:40;;;;;;;7.25;2.90;;;;;;;28.59;47.36;100024.44;5017215;28;20639;-66
2022/06/30 09:34:12;;;;;;;5.90;2.90;;;;;;;28.64;46.96;100025.25;5019324;28;20224;-65
2022/06/30 09:36:40;;;;;;;4.75;3.20;;;;;;;28.76;45.31;100020.31;5009202;28;20201;-66
2022/06/30 09:39:10;;;;;;;6.78;2.72;;;;;;;28.89;44.26;100020.84;5018910;28;20274;-66
2022/06/30 09:41:41;;;;;;;5.03;2.50;;;;;;;28.86;44.80;100015.91;5029485;28;20228;-65
2022/06/30 09:44:19;;;;;;;6.10;2.58;;;;;;;28.96;44.28;100013.97;5021170;28;20240;-66
2022/06/30 09:46:58;;;;;;;3.75;2.25;;;;;;;29.10;44.74;100008.72;5029570;28;20206;-66
2022/06/30 09:49:30;;;;;;;6.68;2.60;;;;;;;29.12;43.44;100011.97;5024047;28;20547;-67
2022/06/30 09:51:59;;;;;;;7.72;2.30;;;;;;;29.22;43.52;100014.66;5022012;28;20312;-66
2022/06/30 09:54:27;;;;;;;5.28;2.60;;;;;;;29.28;44.74;100007.25;5019343;28;20208;-66
2022/06/30 09:57:03;;;;;;;5.13;2.33;;;;;;;29.35;43.19;100011.31;5022432;28;20347;-66
2022/06/30 09:59:32;;;;;;;6.22;2.72;;;;;;;29.45;43.20;100008.53;5010499;28;20211;-66
2022/06/30 10:02:00;;;;;;;6.97;2.83;;;;;;;29.53;42.78;100004.41;5009592;28;20250;-65
2022/06/30 10:04:30;;;;;;;4.57;2.72;;;;;;;29.62;42.39;100001.88;5009399;28;20206;-66
2022/06/30 10:06:58;;;;;;;4.13;2.20;;;;;;;29.66;40.76;100000.19;5009783;28;20209;-66
2022/06/30 10:09:34;;;;;;;4.47;2.15;;;;;;;29.71;40.77;99997.44;5010701;28;20727;-67
2022/06/30 10:12:02;;;;;;;3.80;1.98;;;;;;;29.73;39.20;99990.56;5009610;28;20316;-67
2022/06/30 10:14:34;;;;;;;5.13;2.35;;;;;;;29.75;37.94;99991.09;5009456;28;20680;-65
2022/06/30 10:17:02;;;;;;;7.15;2.35;;;;;;;29.93;38.87;99992.31;5009736;28;20205;-66
2022/06/30 10:19:30;;;;;;;5.00;1.80;;;;;;;30.04;39.27;99993.88;5009450;28;20308;-66
2022/06/30 10:21:58;;;;;;;4.43;2.00;;;;;;;30.10;38.47;99991.91;5009502;28;20222;-67
2022/06/30 10:24:26;;;;;;;10.52;2.08;;;;;;;30.27;36.97;99987.63;5014894;28;20278;-66
2022/06/30 10:27:13;;;;;;;6.40;2.17;;;;;;;30.27;37.02;99984.06;5015293;28;20276;-66
2022/06/30 10:29:48;;;;;;;6.20;2.13;;;;;;;30.34;37.54;99981.81;5013497;28;20713;-66
2022/06/30 10:32:27;;;;;;;3.55;1.60;;;;;;;30.35;34.58;99985.34;5017511;28;20718;-65
2022/06/30 10:35:01;;;;;;;4.15;1.52;;;;;;;30.44;35.28;99983.59;5006612;28;20219;-66
2022/06/30 10:37:35;;;;;;;3.00;1.42;;;;;;;30.49;33.94;99983.56;5013577;28;20201;-66
2022/06/30 10:40:09;;;;;;;2.83;1.40;;;;;;;30.50;33.03;99985.19;5013470;28;20230;-66
2022/06/30 10:42:45;;;;;;;6.15;1.90;;;;;;;30.64;32.88;99975.19;5012392;28;20220;-66
2022/06/30 10:45:42;;;;;;;6.82;2.25;;;;;;;30.74;34.75;99968.78;5012562;28;20289;-66
2022/06/30 10:48:10;;;;;;;4.32;2.10;;;;;;;30.74;34.76;99980.56;5013273;28;20209;-66
2022/06/30 10:50:44;;;;;;;5.03;2.15;;;;;;;30.84;32.66;99968.66;5013021;28;20980;-67
2022/06/30 10:53:17;;;;;;;4.13;2.47;;;;;;;30.97;34.05;99968.72;5012398;28;20206;-66
2022/06/30 10:55:56;;;;;;;7.80;2.28;;;;;;;30.97;34.24;99963.25;5018309;28;20290;-67
2022/06/30 10:58:25;;;;;;;10.38;2.65;;;;;;;31.08;32.92;99958.50;5031071;28;20255;-66
2022/06/30 11:01:02;;;;;;;4.93;2.50;;;;;;;31.13;35.43;99965.84;5032240;28;20257;-66
2022/06/30 11:04:01;;;;;;;5.85;2.40;;;;;;;31.20;35.32;99966.28;5032107;28;20302;-66
2022/06/30 11:07:01;;;;;;;5.20;2.70;;;;;;;31.34;33.59;99956.19;5018377;28;20612;-66
2022/06/30 11:10:05;;;;;;;7.18;2.78;;;;;;;31.37;34.37;99959.16;5011612;28;20262;-66
2022/06/30 11:13:09;;;;;;;8.80;2.70;;;;;;;31.55;35.11;99956.69;5025768;28;20220;-66
2022/06/30 11:15:57;;;;;;;6.10;2.30;;;;;;;31.56;34.74;99955.56;5032816;28;20255;-67
2022/06/30 11:18:28;;;;;;;5.07;2.47;;;;;;;31.33;35.28;99960.03;5032815;28;20271;-66
2022/06/30 11:20:56;;;;;;;4.75;2.20;;;;;;;31.11;35.36;99952.44;5031020;28;20311;-67
2022/06/30 11:23:26;;;;;;;5.75;1.98;;;;;;;30.96;35.23;99947.94;5024535;28;20209;-66
2022/06/30 11:28:41;;;;;;;5.60;2.60;;;;;;;31.00;33.68;99949.00;5043005;28;20250;-66
2022/06/30 11:31:30;;;;;;;3.67;2.17;;;;;;;31.11;33.78;99946.13;5024882;28;20260;-66
2022/06/30 11:34:02;;;;;;;5.63;2.72;;;;;;;31.08;35.79;99953.00;5030164;28;20201;-66
2022/06/30 11:36:30;;;;;;;5.32;2.55;;;;;;;31.00;34.98;99938.03;5031054;28;20686;-66
2022/06/30 11:39:00;;;;;;;4.25;2.15;;;;;;;31.16;35.70;99932.34;5031621;28;20209;-66
2022/06/30 11:44:16;;;;;;;4.30;2.53;;;;;;;31.45;35.94;99935.75;5031391;28;20698;-66
2022/06/30 11:46:52;;;;;;;7.20;2.75;;;;;;;31.51;35.27;99920.84;5032060;28;20201;-66
2022/06/30 11:49:23;;;;;;;6.10;2.40;;;;;;;31.52;34.86;99927.13;5030161;28;20223;-66
2022/06/30 11:51:52;;;;;;;7.18;2.88;;;;;;;31.51;35.16;99929.06;5029375;28;20618;-66
2022/06/30 11:54:23;;;;;;;7.32;2.05;;;;;;;31.73;33.10;99920.22;5030667;28;20291;-66
2022/06/30 11:56:53;;;;;;;6.22;2.50;;;;;;;31.86;33.81;99929.56;5031729;28;20327;-66